createdAt,value
2023-12-17T00:01:59.910Z,35.75
2023-12-17T00:04:27.033Z,35.17
2023-12-17T00:06:54.246Z,36.03
2023-12-17T00:09:21.506Z,35.22
2023-12-17T00:11:49.188Z,37.55
2023-12-17T00:14:16.225Z,35.83
2023-12-17T00:16:43.200Z,36.90
2023-12-17T00:19:10.592Z,35.88
2023-12-17T00:21:37.553Z,35.30
2023-12-17T00:24:04.626Z,36.35
2023-12-17T00:26:31.461Z,37.28
2023-12-17T00:28:58.425Z,38.17
2023-12-17T00:31:25.445Z,37.72
2023-12-17T00:33:52.486Z,37.03
2023-12-17T00:36:19.502Z,34.78
2023-12-17T00:38:46.650Z,33.67
2023-12-17T00:41:14.536Z,34.65
2023-12-17T00:43:41.775Z,36.13
2023-12-17T00:46:08.586Z,35.45
2023-12-17T00:48:35.541Z,35.00
2023-12-17T00:51:02.516Z,34.03
2023-12-17T00:53:29.982Z,34.72
2023-12-17T00:55:56.989Z,30.98
2023-12-17T00:58:23.853Z,30.25
2023-12-17T01:00:55.299Z,32.17
2023-12-17T01:03:23.392Z,31.00
2023-12-17T01:05:50.506Z,29.45
2023-12-17T01:08:17.669Z,31.27
2023-12-17T01:10:44.492Z,33.38
2023-12-17T01:13:11.558Z,30.70
2023-12-17T01:15:39.662Z,32.45
2023-12-17T01:18:06.767Z,29.88
2023-12-17T01:20:33.931Z,30.58
2023-12-17T01:23:00.852Z,32.30
2023-12-17T01:25:27.951Z,32.78
2023-12-17T01:27:54.877Z,36.70
2023-12-17T01:30:22.205Z,32.83
2023-12-17T01:32:49.563Z,34.35
2023-12-17T01:35:16.559Z,34.30
2023-12-17T01:37:43.509Z,32.58
2023-12-17T01:40:10.831Z,33.03
2023-12-17T01:42:37.815Z,32.88
2023-12-17T01:45:05.342Z,33.53
2023-12-17T01:47:32.372Z,35.40
2023-12-17T01:49:59.437Z,36.65
2023-12-17T01:52:26.351Z,36.50
2023-12-17T01:54:53.250Z,36.17
2023-12-17T01:57:20.807Z,36.85
2023-12-17T01:59:48.234Z,35.05
2023-12-17T02:02:16.410Z,32.65
2023-12-17T02:04:43.507Z,35.95
2023-12-17T02:07:10.416Z,39.53
2023-12-17T02:09:37.702Z,38.05
2023-12-17T02:12:04.982Z,41.53
2023-12-17T02:14:31.903Z,39.85
2023-12-17T02:16:59.153Z,41.67
2023-12-17T02:19:26.090Z,39.75
2023-12-17T02:21:53.296Z,39.28
2023-12-17T02:24:20.209Z,40.05
2023-12-17T02:26:47.157Z,40.28
2023-12-17T02:29:23.343Z,37.13
2023-12-17T02:31:50.305Z,36.85
2023-12-17T02:34:18.697Z,40.65
2023-12-17T02:36:45.835Z,38.28
2023-12-17T02:39:12.851Z,40.53
2023-12-17T02:41:40.195Z,38.08
2023-12-17T02:44:07.117Z,38.05
2023-12-17T02:46:34.223Z,40.40
2023-12-17T02:49:01.211Z,37.97
2023-12-17T02:51:28.150Z,37.53
2023-12-17T02:53:55.140Z,37.90
2023-12-17T02:56:22.261Z,38.10
2023-12-17T02:58:49.270Z,38.53
2023-12-17T03:01:16.238Z,39.22
2023-12-17T03:03:43.157Z,36.47
2023-12-17T03:06:10.190Z,40.55
2023-12-17T03:08:39.365Z,40.42
2023-12-17T03:11:06.598Z,39.20
2023-12-17T03:13:33.422Z,40.92
2023-12-17T03:16:00.356Z,38.05
2023-12-17T03:18:27.386Z,42.10
2023-12-17T03:20:54.331Z,39.00
2023-12-17T03:23:21.446Z,38.55
2023-12-17T03:25:48.298Z,40.25
2023-12-17T03:28:15.098Z,41.42
2023-12-17T03:30:42.157Z,43.03
2023-12-17T03:33:10.574Z,41.88
2023-12-17T03:35:38.783Z,41.72
2023-12-17T03:38:05.863Z,44.10
2023-12-17T03:40:33.030Z,41.47
2023-12-17T03:43:01.824Z,46.58
2023-12-17T03:45:28.814Z,44.13
2023-12-17T03:47:56.042Z,46.53
2023-12-17T03:50:23.006Z,43.03
2023-12-17T03:52:51.875Z,41.95
2023-12-17T03:55:19.029Z,40.53
2023-12-17T03:57:51.829Z,38.95
2023-12-17T04:00:19.803Z,39.72
2023-12-17T04:02:48.023Z,37.55
2023-12-17T04:05:17.383Z,37.75
2023-12-17T04:07:44.290Z,36.90
2023-12-17T04:10:11.275Z,36.80
2023-12-17T04:12:38.237Z,36.65
2023-12-17T04:15:05.895Z,38.53
2023-12-17T04:17:33.419Z,36.70
2023-12-17T04:20:00.564Z,39.10
2023-12-17T04:22:27.609Z,41.83
2023-12-17T04:24:55.253Z,39.22
2023-12-17T04:27:26.011Z,41.22
2023-12-17T04:29:53.108Z,42.67
2023-12-17T04:32:22.255Z,44.33
2023-12-17T04:34:49.953Z,43.83
2023-12-17T04:37:17.960Z,41.75
2023-12-17T04:39:46.237Z,42.70
2023-12-17T04:42:15.464Z,39.03
2023-12-17T04:44:42.813Z,40.90
2023-12-17T04:47:14.724Z,39.50
2023-12-17T04:49:42.027Z,38.08
2023-12-17T04:52:13.784Z,39.28
2023-12-17T04:54:40.667Z,39.53
2023-12-17T04:57:08.741Z,39.42
2023-12-17T04:59:35.806Z,41.45
2023-12-17T05:02:03.756Z,39.83
2023-12-17T05:04:31.911Z,40.65
2023-12-17T05:06:59.477Z,38.53
2023-12-17T05:09:28.642Z,40.17
2023-12-17T05:11:57.414Z,38.80
2023-12-17T05:14:24.666Z,42.95
2023-12-17T05:16:53.628Z,42.15
2023-12-17T05:19:21.406Z,43.25
2023-12-17T05:21:48.330Z,42.05
2023-12-17T05:24:15.602Z,44.95
2023-12-17T05:26:42.831Z,41.83
2023-12-17T05:29:12.532Z,47.17
2023-12-17T05:31:40.459Z,45.92
2023-12-17T05:34:10.233Z,52.45
2023-12-17T05:36:37.285Z,48.10
2023-12-17T05:39:04.525Z,47.83
2023-12-17T05:41:32.716Z,46.78
2023-12-17T05:44:01.851Z,43.55
2023-12-17T05:46:28.925Z,47.17
2023-12-17T05:48:56.270Z,47.58
2023-12-17T05:51:23.464Z,48.10
2023-12-17T05:53:50.869Z,46.50
2023-12-17T05:56:17.721Z,45.50
2023-12-17T05:58:45.867Z,45.35
2023-12-17T06:01:12.833Z,42.58
2023-12-17T06:03:41.366Z,44.42
2023-12-17T06:06:10.057Z,46.25
2023-12-17T06:08:37.128Z,47.30
2023-12-17T06:11:04.249Z,50.80
2023-12-17T06:13:31.354Z,44.30
2023-12-17T06:15:58.739Z,42.08
2023-12-17T06:18:25.773Z,45.78
2023-12-17T06:20:54.617Z,44.85
2023-12-17T06:23:21.491Z,44.28
2023-12-17T06:25:49.208Z,43.85
2023-12-17T06:28:17.909Z,45.42
2023-12-17T06:30:45.564Z,46.75
2023-12-17T06:33:12.798Z,52.97
2023-12-17T06:35:40.148Z,51.03
2023-12-17T06:38:10.293Z,50.65
2023-12-17T06:40:39.912Z,47.13
2023-12-17T06:43:06.946Z,50.30
2023-12-17T06:45:35.836Z,48.22
2023-12-17T06:48:11.895Z,49.83
2023-12-17T06:50:39.287Z,46.40
2023-12-17T06:53:06.373Z,48.83
2023-12-17T06:55:35.683Z,49.38
2023-12-17T06:58:03.017Z,48.33
2023-12-17T07:00:29.974Z,48.53
2023-12-17T07:02:58.119Z,48.47
2023-12-17T07:05:26.275Z,52.10
2023-12-17T07:07:55.321Z,47.72
2023-12-17T07:10:22.894Z,47.70
2023-12-17T07:12:49.774Z,48.58
2023-12-17T07:15:16.856Z,48.42
2023-12-17T07:17:45.407Z,52.17
2023-12-17T07:20:14.463Z,47.72
2023-12-17T07:22:43.815Z,52.40
2023-12-17T07:25:11.530Z,48.20
2023-12-17T07:27:39.950Z,51.38
2023-12-17T07:30:07.926Z,49.70
2023-12-17T07:32:35.733Z,53.47
2023-12-17T07:35:04.552Z,50.42
2023-12-17T07:37:32.416Z,51.17
2023-12-17T07:39:59.476Z,51.25
2023-12-17T07:42:26.445Z,50.80
2023-12-17T07:44:55.582Z,50.83
2023-12-17T07:47:23.182Z,47.55
2023-12-17T07:49:52.641Z,53.03
2023-12-17T07:52:20.176Z,57.00
2023-12-17T07:54:47.774Z,54.13
2023-12-17T07:57:14.755Z,56.28
2023-12-17T07:59:42.237Z,56.72
2023-12-17T08:02:09.091Z,56.30
2023-12-17T08:04:37.811Z,50.50
2023-12-17T08:07:06.788Z,53.88
2023-12-17T08:09:36.445Z,53.92
2023-12-17T08:12:07.711Z,51.55
2023-12-17T08:14:35.751Z,51.22
2023-12-17T08:17:02.861Z,54.72
2023-12-17T08:19:29.854Z,53.15
2023-12-17T08:21:58.737Z,59.15
2023-12-17T08:24:27.820Z,57.42
2023-12-17T08:26:56.312Z,54.83
2023-12-17T08:29:24.158Z,58.33
2023-12-17T08:31:53.326Z,58.55
2023-12-17T08:34:20.360Z,59.53
2023-12-17T08:36:48.508Z,56.28
2023-12-17T08:39:15.884Z,58.60
2023-12-17T08:41:44.357Z,60.60
2023-12-17T08:44:13.114Z,56.88
2023-12-17T08:46:40.044Z,55.80
2023-12-17T08:49:07.589Z,58.70
2023-12-17T08:51:34.923Z,58.70
2023-12-17T08:54:03.304Z,60.65
2023-12-17T08:56:30.299Z,61.22
2023-12-17T08:58:58.920Z,62.38
2023-12-17T09:01:26.343Z,61.22
2023-12-17T09:03:56.756Z,65.65
2023-12-17T09:06:26.372Z,62.10
2023-12-17T09:08:56.339Z,66.82
2023-12-17T09:11:23.388Z,63.90
2023-12-17T09:13:53.143Z,63.33
2023-12-17T09:16:27.689Z,61.53
2023-12-17T09:18:55.109Z,65.50
2023-12-17T09:21:22.153Z,61.17
2023-12-17T09:23:49.145Z,60.95
2023-12-17T09:26:16.372Z,60.83
2023-12-17T09:28:44.402Z,61.33
2023-12-17T09:31:16.714Z,59.78
2023-12-17T09:33:44.866Z,59.83
2023-12-17T09:36:11.794Z,58.72
2023-12-17T09:38:38.753Z,56.10
2023-12-17T09:41:08.333Z,56.22
2023-12-17T09:43:35.580Z,57.08
2023-12-17T09:46:03.036Z,57.35
2023-12-17T09:48:31.252Z,56.40
2023-12-17T09:50:58.749Z,58.17
2023-12-17T09:53:25.988Z,55.60
2023-12-17T09:55:53.017Z,49.55
2023-12-17T09:58:20.979Z,52.33
2023-12-17T10:00:50.292Z,52.15
2023-12-17T10:03:17.580Z,51.80
2023-12-17T10:05:51.641Z,49.03
2023-12-17T10:08:19.635Z,52.60
2023-12-17T10:10:49.592Z,54.85
2023-12-17T10:13:23.185Z,54.85
2023-12-17T10:15:51.868Z,52.38
2023-12-17T10:18:19.223Z,54.47
2023-12-17T10:20:47.698Z,56.00
2023-12-17T10:23:14.921Z,50.67
2023-12-17T10:25:43.082Z,54.35
2023-12-17T10:28:11.725Z,55.33
2023-12-17T10:30:39.710Z,54.45
2023-12-17T10:33:07.294Z,53.25
2023-12-17T10:35:36.044Z,52.58
2023-12-17T10:38:06.967Z,55.80
2023-12-17T10:40:34.369Z,53.78
2023-12-17T10:43:02.316Z,52.45
2023-12-17T10:45:31.948Z,55.15
2023-12-17T10:48:00.311Z,57.67
2023-12-17T10:50:29.023Z,56.80
2023-12-17T10:52:55.989Z,55.47
2023-12-17T10:55:25.803Z,57.80
2023-12-17T10:58:05.182Z,55.33
2023-12-17T11:00:34.914Z,54.28
2023-12-17T11:03:07.656Z,57.20
2023-12-17T11:05:34.820Z,58.08
2023-12-17T11:08:01.950Z,59.53
2023-12-17T11:10:29.058Z,53.50
2023-12-17T11:12:56.671Z,53.70
2023-12-17T11:15:24.441Z,54.58
2023-12-17T11:17:55.560Z,52.88
2023-12-17T11:20:34.469Z,54.45
2023-12-17T11:23:03.381Z,54.78
2023-12-17T11:25:33.220Z,50.13
2023-12-17T11:28:00.385Z,55.70
2023-12-17T11:30:29.540Z,57.20
2023-12-17T11:32:59.520Z,58.05
2023-12-17T11:35:34.571Z,58.03
2023-12-17T11:38:04.092Z,58.40
2023-12-17T11:40:32.698Z,60.55
2023-12-17T11:43:02.028Z,64.03
2023-12-17T11:45:33.820Z,66.78
2023-12-17T11:48:16.262Z,65.18
2023-12-17T11:50:56.945Z,64.90
2023-12-17T11:53:27.689Z,63.92
2023-12-17T11:56:00.570Z,63.13
2023-12-17T11:58:27.914Z,67.07
2023-12-17T12:01:04.054Z,64.40
2023-12-17T12:03:32.071Z,63.63
2023-12-17T12:06:08.965Z,60.30
2023-12-17T12:08:42.017Z,57.00
2023-12-17T12:11:16.939Z,56.07
2023-12-17T12:13:46.530Z,54.97
2023-12-17T12:16:14.308Z,56.15
2023-12-17T12:18:41.964Z,52.15
2023-12-17T12:21:25.387Z,58.22
2023-12-17T12:23:54.160Z,56.47
2023-12-17T12:26:22.511Z,58.95
2023-12-17T12:29:00.570Z,51.50
2023-12-17T12:31:28.307Z,57.17
2023-12-17T12:34:03.623Z,56.65
2023-12-17T12:36:47.522Z,61.78
2023-12-17T12:39:16.552Z,61.53
2023-12-17T12:41:47.674Z,68.88
2023-12-17T12:44:17.149Z,54.78
2023-12-17T12:46:47.425Z,51.20
2023-12-17T12:49:14.541Z,51.65
2023-12-17T12:51:41.852Z,56.35
2023-12-17T12:54:10.868Z,59.58
2023-12-17T12:56:38.601Z,55.40
2023-12-17T12:59:05.786Z,54.08
2023-12-17T13:01:32.731Z,58.40
2023-12-17T13:04:00.528Z,60.47
2023-12-17T13:06:27.925Z,60.13
2023-12-17T13:08:55.195Z,58.20
2023-12-17T13:11:22.206Z,57.30
2023-12-17T13:13:49.699Z,56.13
2023-12-17T13:16:16.628Z,58.45
2023-12-17T13:18:43.778Z,61.55
2023-12-17T13:21:10.940Z,55.53
2023-12-17T13:23:38.279Z,53.40
2023-12-17T13:26:10.680Z,61.85
2023-12-17T13:28:47.144Z,61.42
2023-12-17T13:31:15.459Z,62.75
2023-12-17T13:33:42.666Z,60.22
2023-12-17T13:36:11.597Z,61.58
2023-12-17T13:38:38.557Z,60.70
2023-12-17T13:41:05.388Z,56.90
2023-12-17T13:43:32.549Z,58.67
2023-12-17T13:45:59.392Z,60.58
2023-12-17T13:48:26.511Z,63.00
2023-12-17T13:50:53.700Z,59.08
2023-12-17T13:53:21.376Z,65.65
2023-12-17T13:55:48.518Z,62.90
2023-12-17T13:58:15.794Z,59.47
2023-12-17T14:00:42.707Z,59.40
2023-12-17T14:03:09.761Z,60.35
2023-12-17T14:05:36.782Z,66.18
2023-12-17T14:08:04.666Z,60.00
2023-12-17T14:10:31.551Z,61.05
2023-12-17T14:13:00.912Z,61.97
2023-12-17T14:15:27.850Z,61.70
2023-12-17T14:17:55.061Z,64.95
2023-12-17T14:20:25.639Z,64.05
2023-12-17T14:22:54.111Z,64.82
2023-12-17T14:25:21.200Z,65.32
2023-12-17T14:27:49.179Z,62.45
2023-12-17T14:30:16.809Z,64.97
2023-12-17T14:32:44.308Z,59.78
2023-12-17T14:35:11.698Z,61.75
2023-12-17T14:37:38.760Z,58.38
2023-12-17T14:40:09.340Z,61.15
2023-12-17T14:42:38.040Z,56.75
2023-12-17T14:45:06.939Z,62.63
2023-12-17T14:47:34.157Z,61.88
2023-12-17T14:50:01.867Z,58.90
2023-12-17T14:52:29.356Z,60.80
2023-12-17T14:54:56.281Z,61.50
2023-12-17T14:57:23.427Z,62.35
2023-12-17T14:59:50.542Z,62.90
2023-12-17T15:02:17.546Z,59.65
2023-12-17T15:04:44.578Z,61.63
2023-12-17T15:07:15.924Z,65.22
2023-12-17T15:09:44.364Z,59.47
2023-12-17T15:12:11.854Z,72.00
2023-12-17T15:14:39.413Z,70.95
2023-12-17T15:17:07.214Z,70.88
2023-12-17T15:19:35.740Z,70.70
2023-12-17T15:22:02.916Z,74.88
2023-12-17T15:24:29.895Z,73.22
2023-12-17T15:26:56.797Z,69.00
2023-12-17T15:29:23.877Z,70.00
2023-12-17T15:31:52.163Z,66.40
2023-12-17T15:34:19.552Z,68.32
2023-12-17T15:36:46.509Z,69.28
2023-12-17T15:39:13.628Z,67.35
2023-12-17T15:41:40.642Z,66.93
2023-12-17T15:44:07.851Z,68.28
2023-12-17T15:46:35.798Z,68.03
2023-12-17T15:49:03.194Z,69.30
2023-12-17T15:51:30.245Z,69.93
2023-12-17T15:53:57.437Z,68.68
2023-12-17T15:56:24.534Z,68.80
2023-12-17T15:58:53.978Z,74.43
2023-12-17T16:01:21.268Z,76.70
2023-12-17T16:03:50.360Z,75.13
2023-12-17T16:06:19.271Z,83.05
2023-12-17T16:08:46.390Z,89.25
2023-12-17T16:11:13.599Z,82.50
2023-12-17T16:13:40.525Z,88.32
2023-12-17T16:16:07.494Z,87.47
2023-12-17T16:18:36.485Z,88.90
2023-12-17T16:21:05.378Z,87.47
2023-12-17T16:23:32.749Z,88.25
2023-12-17T16:25:59.776Z,87.57
2023-12-17T16:28:26.655Z,85.50
2023-12-17T16:30:54.308Z,89.65
2023-12-17T16:33:21.604Z,80.55
2023-12-17T16:35:50.670Z,84.03
2023-12-17T16:38:17.792Z,88.03
2023-12-17T16:40:45.670Z,92.88
2023-12-17T16:43:13.819Z,94.72
2023-12-17T16:45:47.671Z,95.85
2023-12-17T16:50:45.854Z,91.50
2023-12-17T16:53:13.499Z,94.13
2023-12-17T16:55:41.418Z,99.20
2023-12-17T16:58:08.573Z,94.20
2023-12-17T17:00:36.338Z,90.43
2023-12-17T17:03:04.260Z,88.18
2023-12-17T17:05:31.444Z,84.38
2023-12-17T17:07:58.446Z,93.07
2023-12-17T17:10:25.324Z,94.93
2023-12-17T17:12:53.623Z,97.03
2023-12-17T17:15:20.712Z,91.90
2023-12-17T17:17:48.048Z,90.82
2023-12-17T17:20:15.256Z,89.78
2023-12-17T17:22:42.600Z,98.72
2023-12-17T17:25:10.124Z,101.28
2023-12-17T17:27:38.362Z,95.85
2023-12-17T17:30:07.409Z,93.10
2023-12-17T17:32:34.785Z,88.45
2023-12-17T17:35:01.812Z,88.50
2023-12-17T17:37:29.037Z,83.30
2023-12-17T17:39:57.657Z,82.95
2023-12-17T17:42:25.700Z,82.38
2023-12-17T17:44:52.638Z,87.13
2023-12-17T17:47:20.049Z,97.80
2023-12-17T17:49:48.406Z,86.32
2023-12-17T17:52:15.418Z,87.70
2023-12-17T17:54:42.617Z,87.18
2023-12-17T17:57:09.970Z,84.68
2023-12-17T17:59:36.969Z,93.88
2023-12-17T18:02:04.226Z,94.13
2023-12-17T18:04:31.302Z,88.07
2023-12-17T18:06:58.272Z,95.78
2023-12-17T18:09:26.352Z,99.70
2023-12-17T18:11:53.267Z,95.18
2023-12-17T18:14:20.258Z,91.10
2023-12-17T18:16:48.451Z,94.97
2023-12-17T18:19:15.334Z,91.45
2023-12-17T18:21:42.328Z,100.68
2023-12-17T18:24:09.204Z,99.35
2023-12-17T18:26:36.415Z,95.03
2023-12-17T18:29:03.313Z,97.95
2023-12-17T18:31:31.015Z,100.72
2023-12-17T18:33:58.240Z,97.50
2023-12-17T18:36:25.498Z,91.07
2023-12-17T18:38:52.548Z,93.00
2023-12-17T18:41:20.235Z,100.40
2023-12-17T18:43:47.660Z,94.88
2023-12-17T18:46:15.844Z,102.00
2023-12-17T18:48:43.437Z,105.50
2023-12-17T18:51:11.207Z,105.43
2023-12-17T18:53:39.711Z,107.57
2023-12-17T18:56:07.200Z,114.68
2023-12-17T18:58:34.654Z,102.68
2023-12-17T19:01:01.734Z,106.47
2023-12-17T19:03:29.001Z,104.43
2023-12-17T19:05:56.334Z,96.95
2023-12-17T19:08:23.276Z,93.85
2023-12-17T19:10:50.138Z,100.75
2023-12-17T19:13:17.162Z,101.80
2023-12-17T19:15:46.130Z,98.38
2023-12-17T19:18:13.632Z,108.65
2023-12-17T19:20:41.413Z,105.32
2023-12-17T19:23:08.319Z,105.88
2023-12-17T19:25:35.350Z,107.65
2023-12-17T19:28:02.586Z,98.65
2023-12-17T19:30:29.663Z,102.53
2023-12-17T19:32:57.001Z,101.45
2023-12-17T19:35:24.189Z,102.53
2023-12-17T19:37:51.101Z,98.07
2023-12-17T19:40:18.315Z,96.15
2023-12-17T19:42:45.718Z,92.45
2023-12-17T19:45:14.765Z,93.93
2023-12-17T19:47:45.314Z,97.70
2023-12-17T19:50:12.521Z,100.78
2023-12-17T19:52:39.896Z,93.82
2023-12-17T19:55:07.720Z,92.00
2023-12-17T19:57:34.822Z,101.50
2023-12-17T20:00:02.076Z,96.53
2023-12-17T20:02:31.371Z,97.05
2023-12-17T20:04:58.491Z,89.63
2023-12-17T20:07:25.670Z,90.90
2023-12-17T20:09:52.722Z,88.18
2023-12-17T20:12:19.712Z,89.03
2023-12-17T20:14:46.722Z,88.00
2023-12-17T20:17:14.666Z,90.32
2023-12-17T20:19:41.931Z,89.50
2023-12-17T20:22:09.128Z,96.13
2023-12-17T20:24:37.641Z,88.72
2023-12-17T20:27:04.992Z,89.28
2023-12-17T20:29:32.167Z,105.45
2023-12-17T20:31:59.053Z,93.57
2023-12-17T20:34:26.103Z,92.15
2023-12-17T20:36:53.166Z,88.45
2023-12-17T20:39:21.735Z,89.63
2023-12-17T20:41:48.859Z,87.15
2023-12-17T20:44:17.081Z,82.20
2023-12-17T20:49:12.448Z,102.47
2023-12-17T20:51:39.814Z,96.40
2023-12-17T20:54:07.035Z,92.90
2023-12-17T20:56:34.249Z,93.05
2023-12-17T20:59:01.736Z,90.35
2023-12-17T21:01:28.690Z,94.60
2023-12-17T21:03:55.767Z,92.18
2023-12-17T21:06:23.264Z,89.50
2023-12-17T21:08:50.412Z,89.57
2023-12-17T21:11:18.217Z,93.68
2023-12-17T21:13:45.637Z,97.43
2023-12-17T21:16:13.476Z,94.68
2023-12-17T21:18:40.876Z,91.85
2023-12-17T21:21:08.888Z,94.28
2023-12-17T21:23:37.218Z,98.60
2023-12-17T21:26:04.323Z,102.75
2023-12-17T21:28:31.470Z,99.30
2023-12-17T21:30:58.755Z,98.90
2023-12-17T21:33:26.893Z,97.18
2023-12-17T21:35:53.922Z,98.07
2023-12-17T21:38:21.519Z,97.72
2023-12-17T21:40:48.628Z,99.30
2023-12-17T21:43:15.864Z,102.72
2023-12-17T21:45:42.920Z,103.05
2023-12-17T21:48:10.048Z,96.57
2023-12-17T21:50:37.118Z,96.68
2023-12-17T21:53:04.203Z,92.88
2023-12-17T21:55:31.514Z,97.97
2023-12-17T21:57:58.741Z,95.40
2023-12-17T22:00:25.881Z,96.60
2023-12-17T22:02:52.871Z,97.45
2023-12-17T22:05:20.783Z,93.07
2023-12-17T22:07:49.405Z,94.95
2023-12-17T22:10:16.668Z,97.03
2023-12-17T22:12:44.217Z,96.80
2023-12-17T22:15:11.296Z,94.57
2023-12-17T22:17:38.510Z,99.50
2023-12-17T22:20:06.465Z,107.97
2023-12-17T22:22:33.734Z,107.53
2023-12-17T22:25:01.542Z,100.18
2023-12-17T22:27:29.141Z,98.85
2023-12-17T22:29:58.097Z,107.57
2023-12-17T22:32:25.743Z,109.70
2023-12-17T22:34:53.315Z,106.18
2023-12-17T22:37:20.322Z,113.93
2023-12-17T22:39:47.501Z,106.90
2023-12-17T22:42:14.547Z,103.72
2023-12-17T22:44:44.184Z,106.22
2023-12-17T22:47:11.114Z,102.93
2023-12-17T22:49:38.192Z,102.20
2023-12-17T22:52:05.610Z,104.88
2023-12-17T22:54:36.369Z,104.72
2023-12-17T22:57:04.192Z,100.03
2023-12-17T22:59:31.050Z,103.85
2023-12-17T23:01:58.108Z,103.05
2023-12-17T23:04:25.063Z,112.05
2023-12-17T23:06:52.075Z,116.75
2023-12-17T23:09:19.165Z,116.72
2023-12-17T23:11:46.399Z,114.10
2023-12-17T23:14:13.244Z,108.07
2023-12-17T23:16:40.222Z,111.97
2023-12-17T23:19:07.137Z,115.00
2023-12-17T23:21:34.246Z,109.72
2023-12-17T23:24:01.291Z,106.97
2023-12-17T23:26:28.164Z,118.20
2023-12-17T23:28:55.081Z,101.70
2023-12-17T23:31:22.037Z,111.50
2023-12-17T23:33:49.455Z,105.78
2023-12-17T23:36:16.403Z,109.20
2023-12-17T23:38:43.343Z,103.80
2023-12-17T23:41:10.265Z,104.50
2023-12-17T23:43:37.428Z,114.00
2023-12-17T23:46:04.748Z,109.72
2023-12-17T23:48:31.722Z,114.13
2023-12-17T23:50:58.875Z,107.60
2023-12-17T23:53:27.095Z,107.28
2023-12-17T23:55:54.311Z,109.20
2023-12-17T23:58:21.776Z,101.05
